Terminal Aerodrome Forecast
Issued by NWS Jackson, KY

Home | Current Version | Previous Version | Text Only | Print | Product List | Glossary On
Versions: 1 2 3 4 5 6 7 8 9 10 11 12 13 14 15 16 17
000
FTUS43 KJKL 270526
TAFLOZ
TAF
KLOZ 270526Z 2706/2806 33006KT 4SM -SN BKN025 OVC060
     FM270800 35007KT 5SM -SN BR BKN025 OVC035
     FM271200 35006KT 6SM -SN BR OVC025
     FM271600 01005KT P6SM BKN035=

USA.gov is the U.S. government's official web portal to all federal, state and local government web resources and services.